Time;durP1;ratioP1;P1;durP2;ratioP2;P2;SDS_P1;SDS_P2;PMS_P1;PMS_P2;Temp;Humidity;BMP_temperature;BMP_pressure;BME280_temperature;BME280_humidity;BME280_pressure;Samples;Min_cycle;Max_cycle;Signal;HPM_P1;HPM_P2
2022/07/15 00:02:23;;;;;;;1.88;1.77;;;23.40;61.80;;;;;;5031042;28;20215;-69
2022/07/15 00:04:49;;;;;;;2.03;1.90;;;23.40;61.80;;;;;;5046867;28;20182;-68
2022/07/15 00:07:15;;;;;;;1.98;1.88;;;23.40;61.90;;;;;;5032229;28;20187;-69
2022/07/15 00:12:25;;;;;;;2.17;2.08;;;23.40;61.80;;;;;;5032263;28;20210;-68
2022/07/15 00:14:50;;;;;;;1.83;1.73;;;23.40;61.80;;;;;;5014333;28;20184;-68
2022/07/15 00:17:16;;;;;;;2.10;2.00;;;23.40;61.80;;;;;;5032225;28;20211;-68
2022/07/15 00:19:42;;;;;;;2.47;2.08;;;23.40;61.70;;;;;;5031214;28;20643;-68
2022/07/15 00:22:09;;;;;;;2.85;2.00;;;23.40;61.90;;;;;;5030905;28;20225;-68
2022/07/15 00:24:35;;;;;;;3.88;2.13;;;23.40;61.80;;;;;;5031215;28;20185;-68
2022/07/15 00:27:02;;;;;;;2.55;2.20;;;23.40;61.80;;;;;;5013728;28;20274;-68
2022/07/15 00:29:29;;;;;;;1.98;1.88;;;23.40;62.60;;;;;;5014385;28;20675;-69
2022/07/15 00:31:56;;;;;;;2.75;2.15;;;23.40;61.90;;;;;;5014323;28;20217;-68
2022/07/15 00:34:21;;;;;;;2.15;1.95;;;23.40;61.90;;;;;;4998238;28;20584;-68
2022/07/15 00:36:48;;;;;;;1.92;1.83;;;23.40;61.80;;;;;;5013608;28;20180;-68
2022/07/15 00:39:15;;;;;;;2.35;1.73;;;23.40;61.80;;;;;;5030651;28;20187;-69
2022/07/15 00:41:43;;;;;;;2.28;2.08;;;23.40;61.80;;;;;;5030911;28;20210;-68
2022/07/15 00:44:09;;;;;;;2.33;2.13;;;23.30;61.70;;;;;;5047613;28;20275;-68
2022/07/15 00:46:36;;;;;;;2.03;1.83;;;23.40;61.80;;;;;;5030341;28;20650;-68
2022/07/15 00:49:06;;;;;;;2.28;2.08;;;23.30;61.70;;;;;;5030921;28;20191;-68
2022/07/15 00:51:44;;;;;;;2.17;2.08;;;23.30;61.60;;;;;;5014298;28;20253;-69
2022/07/15 00:54:14;;;;;;;3.38;1.90;;;23.30;61.80;;;;;;5030661;28;20201;-68
2022/07/15 00:57:00;;;;;;;1.90;1.80;;;23.30;61.80;;;;;;5030187;28;20191;-69
2022/07/15 00:59:34;;;;;;;2.38;2.17;;;23.30;61.80;;;;;;5014050;28;20199;-69
2022/07/15 01:02:02;;;;;;;1.88;1.77;;;23.30;61.70;;;;;;5013870;28;20218;-69
2022/07/15 01:04:28;;;;;;;2.35;2.20;;;23.30;61.80;;;;;;5046915;28;20187;-69
2022/07/15 01:06:54;;;;;;;2.00;1.90;;;23.30;61.70;;;;;;5049490;28;20199;-68
2022/07/15 01:09:21;;;;;;;2.28;2.08;;;23.30;61.70;;;;;;5032726;28;20659;-69
2022/07/15 01:11:47;;;;;;;2.30;2.05;;;23.30;62.60;;;;;;5034158;28;20248;-69
2022/07/15 01:14:13;;;;;;;2.35;1.83;;;23.30;61.90;;;;;;5034188;28;20167;-69
2022/07/15 01:16:39;;;;;;;2.33;1.83;;;23.30;61.80;;;;;;5033397;28;20227;-69
2022/07/15 01:19:05;;;;;;;2.25;2.05;;;23.30;61.70;;;;;;5034289;28;20198;-69
2022/07/15 01:21:39;;;;;;;2.30;2.10;;;23.30;61.80;;;;;;5033859;28;20213;-69
2022/07/15 01:24:05;;;;;;;2.70;2.10;;;23.30;61.80;;;;;;5033868;28;20187;-68
2022/07/15 01:26:43;;;;;;;2.75;2.30;;;23.30;61.70;;;;;;5033019;28;20195;-68
2022/07/15 01:29:11;;;;;;;1.92;1.77;;;23.30;61.80;;;;;;5034081;28;20191;-69
2022/07/15 01:31:39;;;;;;;1.77;1.67;;;23.30;61.70;;;;;;5033896;28;20210;-68
2022/07/15 01:34:05;;;;;;;2.17;2.00;;;23.30;61.80;;;;;;5034055;28;20179;-68
2022/07/15 01:36:31;;;;;;;2.20;2.00;;;23.30;61.60;;;;;;5033225;28;20187;-69
2022/07/15 01:38:59;;;;;;;2.38;2.08;;;23.30;61.80;;;;;;5033596;28;20210;-69
2022/07/15 01:41:25;;;;;;;2.05;1.95;;;23.30;61.70;;;;;;5033352;28;20219;-69
2022/07/15 01:43:51;;;;;;;2.30;2.10;;;23.20;61.60;;;;;;5033545;28;20246;-69
2022/07/15 01:46:17;;;;;;;1.92;1.83;;;23.30;61.80;;;;;;5032900;28;20179;-68
2022/07/15 01:51:44;;;;;;;2.25;2.10;;;23.30;61.80;;;;;;5033561;28;20203;-69
2022/07/15 01:54:11;;;;;;;1.88;1.77;;;23.20;61.70;;;;;;5033440;28;20190;-69
2022/07/15 01:56:37;;;;;;;1.98;1.88;;;23.20;61.70;;;;;;5032773;28;20175;-68
2022/07/15 01:59:04;;;;;;;2.28;2.10;;;23.20;61.80;;;;;;5033592;28;20179;-69
2022/07/15 02:01:31;;;;;;;2.00;1.90;;;23.20;61.70;;;;;;5033071;28;20212;-68
2022/07/15 02:04:00;;;;;;;2.22;2.03;;;23.20;61.70;;;;;;5041209;28;20179;-69
2022/07/15 02:06:26;;;;;;;2.20;2.00;;;23.20;61.80;;;;;;5052439;28;20193;-69
2022/07/15 02:08:53;;;;;;;1.92;1.83;;;23.20;61.60;;;;;;5052948;28;20650;-69
2022/07/15 02:11:22;;;;;;;2.22;2.08;;;23.20;61.70;;;;;;5052951;28;20233;-69
2022/07/15 02:13:49;;;;;;;2.30;2.10;;;23.20;61.60;;;;;;5053175;28;20270;-69
2022/07/15 02:16:21;;;;;;;2.10;2.00;;;23.20;61.70;;;;;;5036822;28;20221;-68
2022/07/15 02:18:47;;;;;;;1.80;1.70;;;23.20;61.70;;;;;;5053169;28;20206;-69
2022/07/15 02:21:13;;;;;;;2.65;2.15;;;23.20;61.80;;;;;;5052547;28;20210;-69
2022/07/15 02:23:38;;;;;;;1.92;1.83;;;23.20;61.80;;;;;;5036457;28;20210;-69
2022/07/15 02:26:04;;;;;;;2.00;1.90;;;23.20;61.70;;;;;;5052144;28;20186;-69
2022/07/15 02:28:31;;;;;;;2.45;2.22;;;23.20;61.70;;;;;;5052525;28;20244;-69
2022/07/15 02:30:57;;;;;;;2.20;2.00;;;23.20;61.70;;;;;;5035881;28;20213;-68
2022/07/15 02:33:23;;;;;;;2.15;2.00;;;23.20;61.70;;;;;;5052715;28;20234;-68
2022/07/15 02:35:49;;;;;;;1.90;1.80;;;23.20;61.60;;;;;;5051770;28;20186;-68
2022/07/15 02:38:15;;;;;;;2.20;2.00;;;23.20;61.80;;;;;;5052503;28;20239;-69
2022/07/15 02:40:41;;;;;;;2.00;1.90;;;23.10;61.70;;;;;;5052160;28;20214;-68
2022/07/15 02:43:08;;;;;;;2.00;1.90;;;23.10;61.60;;;;;;5035720;28;20208;-69
2022/07/15 02:45:36;;;;;;;2.22;2.10;;;23.10;61.70;;;;;;5051618;28;20183;-68
2022/07/15 02:48:07;;;;;;;2.20;2.00;;;23.10;61.70;;;;;;5052307;28;20267;-68
2022/07/15 02:50:36;;;;;;;2.20;1.95;;;23.20;61.70;;;;;;5052379;28;20205;-68
2022/07/15 02:53:03;;;;;;;1.75;1.65;;;23.20;62.50;;;;;;5053199;28;20171;-68
2022/07/15 02:55:30;;;;;;;2.38;2.03;;;23.10;61.60;;;;;;5035183;28;20190;-69
2022/07/15 02:57:55;;;;;;;2.15;1.95;;;23.10;61.50;;;;;;5035756;28;20174;-69
2022/07/15 03:00:22;;;;;;;2.10;1.95;;;23.10;61.60;;;;;;5052104;28;20190;-69
2022/07/15 03:02:55;;;;;;;1.95;1.85;;;23.10;62.00;;;;;;5036075;28;20174;-68
2022/07/15 03:05:20;;;;;;;1.88;1.70;;;23.10;61.60;;;;;;5051303;28;20194;-68
2022/07/15 03:07:46;;;;;;;2.03;1.92;;;23.10;61.60;;;;;;5035139;28;20190;-69
2022/07/15 03:10:15;;;;;;;1.80;1.70;;;23.10;61.70;;;;;;5052069;28;20244;-69
2022/07/15 03:12:41;;;;;;;2.92;2.10;;;23.10;61.70;;;;;;5068487;28;20178;-69
2022/07/15 03:15:08;;;;;;;1.95;1.85;;;23.10;61.70;;;;;;5051231;28;20194;-69
2022/07/15 03:17:35;;;;;;;2.22;2.10;;;23.10;61.70;;;;;;5051920;28;20594;-68
2022/07/15 03:20:01;;;;;;;2.05;1.90;;;23.10;61.70;;;;;;5051985;28;20178;-69
2022/07/15 03:22:29;;;;;;;1.95;1.80;;;23.10;61.60;;;;;;5051467;28;20210;-69
2022/07/15 03:24:55;;;;;;;1.95;1.85;;;23.10;61.70;;;;;;5051775;28;20182;-69
2022/07/15 03:27:22;;;;;;;2.25;2.05;;;23.10;61.70;;;;;;5051155;28;20592;-69
2022/07/15 03:29:49;;;;;;;2.13;2.03;;;23.10;61.60;;;;;;5051453;28;20183;-69
2022/07/15 03:32:15;;;;;;;1.90;1.80;;;23.10;61.70;;;;;;5051210;28;20202;-69
2022/07/15 03:34:43;;;;;;;2.00;1.90;;;23.10;61.60;;;;;;5034874;28;20654;-68
2022/07/15 03:37:09;;;;;;;3.15;1.95;;;23.10;61.60;;;;;;5067795;28;20177;-69
2022/07/15 03:39:35;;;;;;;2.25;2.08;;;23.10;61.70;;;;;;5034936;28;20182;-69
2022/07/15 03:42:01;;;;;;;2.15;1.90;;;23.10;61.60;;;;;;5051370;28;20216;-69
2022/07/15 03:44:27;;;;;;;2.33;2.13;;;23.10;61.70;;;;;;5051530;28;20186;-68
2022/07/15 03:46:53;;;;;;;2.40;2.13;;;23.10;61.70;;;;;;5050944;28;20294;-69
2022/07/15 03:49:19;;;;;;;2.22;2.03;;;23.10;61.70;;;;;;5034842;28;20182;-68
2022/07/15 03:51:45;;;;;;;2.10;2.00;;;23.10;61.70;;;;;;5051084;28;20233;-69
2022/07/15 03:54:12;;;;;;;2.03;1.92;;;23.10;61.70;;;;;;5051544;28;20204;-68
2022/07/15 03:56:38;;;;;;;2.03;1.75;;;23.10;61.60;;;;;;5050544;28;20189;-69
2022/07/15 03:59:04;;;;;;;2.05;1.90;;;23.10;61.70;;;;;;5051453;28;20198;-68
2022/07/15 04:01:30;;;;;;;2.00;1.90;;;23.00;61.60;;;;;;5067486;28;20246;-68
2022/07/15 04:03:56;;;;;;;2.00;1.90;;;23.00;61.60;;;;;;5051210;28;20228;-69
2022/07/15 04:06:24;;;;;;;2.58;2.00;;;23.00;61.60;;;;;;5050318;28;20640;-68
2022/07/15 04:08:51;;;;;;;1.80;1.70;;;23.10;61.80;;;;;;5034435;28;20187;-68
2022/07/15 04:11:17;;;;;;;2.00;1.90;;;23.00;61.60;;;;;;5050893;28;20209;-68
2022/07/15 04:13:43;;;;;;;1.60;1.50;;;23.00;61.60;;;;;;5051358;28;20196;-69
2022/07/15 04:16:11;;;;;;;2.50;2.30;;;23.00;61.60;;;;;;5050459;28;20186;-69
2022/07/15 04:18:38;;;;;;;1.80;1.65;;;23.00;61.70;;;;;;5050828;28;20218;-68
2022/07/15 04:21:04;;;;;;;2.38;2.00;;;23.00;61.70;;;;;;5067497;28;20233;-68
2022/07/15 04:23:30;;;;;;;2.50;2.13;;;23.00;61.70;;;;;;5050885;28;20257;-68
2022/07/15 04:25:56;;;;;;;1.90;1.80;;;23.00;61.70;;;;;;5050451;28;20274;-68
2022/07/15 04:28:24;;;;;;;2.10;1.90;;;23.00;61.80;;;;;;5050726;28;20181;-69
2022/07/15 04:30:51;;;;;;;2.83;2.20;;;23.00;61.70;;;;;;5034076;28;20213;-69
2022/07/15 04:33:19;;;;;;;2.00;1.90;;;23.00;61.70;;;;;;5034427;28;20185;-69
2022/07/15 04:35:45;;;;;;;2.10;1.90;;;23.00;61.60;;;;;;5049922;28;20179;-68
2022/07/15 04:38:11;;;;;;;2.05;1.92;;;23.10;61.70;;;;;;5050380;28;20185;-68
2022/07/15 04:40:39;;;;;;;1.70;1.60;;;23.00;61.50;;;;;;5033542;28;20206;-68
2022/07/15 04:43:06;;;;;;;2.08;1.98;;;23.00;61.50;;;;;;5034311;28;20179;-69
2022/07/15 04:45:33;;;;;;;2.08;1.98;;;23.00;61.50;;;;;;5037215;28;20209;-68
2022/07/15 04:48:00;;;;;;;2.15;1.98;;;23.00;61.30;;;;;;5055653;28;20182;-68
2022/07/15 04:50:51;;;;;;;2.03;1.90;;;23.00;61.20;;;;;;5038557;28;20175;-68
2022/07/15 04:53:20;;;;;;;2.22;2.10;;;23.00;61.30;;;;;;5054395;28;20167;-68
2022/07/15 04:55:48;;;;;;;1.83;1.73;;;23.00;61.10;;;;;;5054154;28;20186;-68
2022/07/15 04:58:14;;;;;;;1.95;1.85;;;23.00;61.10;;;;;;5070865;28;20182;-69
2022/07/15 05:00:45;;;;;;;2.10;1.90;;;23.00;61.00;;;;;;5053989;28;20740;-69
2022/07/15 05:03:14;;;;;;;2.20;2.10;;;23.00;61.00;;;;;;5070781;28;20329;-69
2022/07/15 05:05:40;;;;;;;2.10;2.00;;;23.00;61.00;;;;;;5047377;28;20210;-69
2022/07/15 05:08:08;;;;;;;2.45;2.00;;;23.00;61.90;;;;;;5038059;28;20183;-69
2022/07/15 05:10:41;;;;;;;2.38;2.17;;;23.00;61.00;;;;;;5054864;28;20262;-69
2022/07/15 05:13:07;;;;;;;2.05;1.85;;;23.00;61.00;;;;;;5055723;28;20178;-69
2022/07/15 05:15:34;;;;;;;2.33;2.10;;;23.00;61.00;;;;;;5052679;28;20194;-69
2022/07/15 05:18:09;;;;;;;2.28;1.73;;;23.00;61.00;;;;;;5053541;28;20185;-69
2022/07/15 05:20:35;;;;;;;2.30;1.60;;;23.00;60.90;;;;;;5053394;28;20202;-69
2022/07/15 05:23:01;;;;;;;2.10;1.90;;;23.00;60.80;;;;;;5036800;28;20183;-69
2022/07/15 05:25:32;;;;;;;2.20;2.00;;;23.00;60.90;;;;;;5052792;28;20217;-69
2022/07/15 05:27:58;;;;;;;1.90;1.70;;;23.00;60.90;;;;;;5053185;28;20179;-69
2022/07/15 05:30:24;;;;;;;1.85;1.75;;;23.00;61.30;;;;;;5053335;28;20186;-69
2022/07/15 05:32:55;;;;;;;3.33;1.95;;;23.00;60.80;;;;;;5037101;28;20673;-69
2022/07/15 05:35:22;;;;;;;1.95;1.85;;;23.00;60.70;;;;;;5036118;28;20198;-68
2022/07/15 05:37:48;;;;;;;2.30;2.10;;;23.00;60.70;;;;;;5052033;28;20653;-69
2022/07/15 05:40:22;;;;;;;2.25;2.05;;;23.00;60.60;;;;;;5054014;28;20696;-69
2022/07/15 05:42:53;;;;;;;1.90;1.80;;;23.00;60.60;;;;;;5052827;28;20686;-69
2022/07/15 05:45:19;;;;;;;2.05;1.60;;;23.00;60.40;;;;;;5052732;28;20190;-69
2022/07/15 05:47:52;;;;;;;1.92;1.83;;;23.00;60.40;;;;;;5036930;28;20183;-69
2022/07/15 05:50:22;;;;;;;2.00;1.77;;;23.00;60.40;;;;;;5052770;28;20178;-69
2022/07/15 05:52:48;;;;;;;2.00;1.88;;;23.00;60.30;;;;;;5052644;28;20189;-68
2022/07/15 05:55:15;;;;;;;2.13;1.83;;;23.00;60.30;;;;;;5052334;28;20190;-69
2022/07/15 05:57:41;;;;;;;2.00;1.90;;;23.00;60.20;;;;;;5035532;28;20244;-69
2022/07/15 06:00:08;;;;;;;2.33;1.90;;;23.00;60.20;;;;;;5035861;28;20179;-69
2022/07/15 06:02:40;;;;;;;1.92;1.80;;;23.00;60.20;;;;;;5054199;28;20232;-69
2022/07/15 06:05:11;;;;;;;2.22;1.85;;;23.00;60.20;;;;;;5052061;28;20190;-69
2022/07/15 06:07:42;;;;;;;2.00;1.90;;;23.00;60.10;;;;;;5051913;28;20183;-69
2022/07/15 06:10:10;;;;;;;1.60;1.50;;;23.00;60.10;;;;;;5052397;28;20186;-69
2022/07/15 06:12:35;;;;;;;1.77;1.67;;;23.00;60.00;;;;;;5052156;28;20735;-69
2022/07/15 06:15:02;;;;;;;1.70;1.60;;;23.00;60.00;;;;;;5035799;28;20187;-69
2022/07/15 06:17:30;;;;;;;2.45;1.55;;;23.00;60.00;;;;;;5051543;28;20182;-69
2022/07/15 06:19:59;;;;;;;1.80;1.70;;;23.00;59.90;;;;;;5036120;28;20565;-69
2022/07/15 06:22:24;;;;;;;1.65;1.55;;;23.00;59.70;;;;;;5053466;28;20214;-69
2022/07/15 06:24:50;;;;;;;1.80;1.65;;;23.00;59.70;;;;;;5052418;28;20186;-69
2022/07/15 06:27:21;;;;;;;1.38;1.27;;;23.10;59.70;;;;;;5038572;28;20183;-69
2022/07/15 06:29:51;;;;;;;1.60;1.50;;;23.00;59.80;;;;;;5032111;28;20217;-68
2022/07/15 06:32:19;;;;;;;2.15;1.80;;;23.00;59.70;;;;;;5031876;28;20211;-69
2022/07/15 06:34:45;;;;;;;2.75;1.75;;;23.00;59.70;;;;;;5015516;28;20202;-69
2022/07/15 06:37:10;;;;;;;1.73;1.63;;;23.00;59.60;;;;;;5031247;28;20187;-69
2022/07/15 06:39:37;;;;;;;1.73;1.63;;;23.00;59.60;;;;;;5032251;28;20577;-69
2022/07/15 06:42:03;;;;;;;2.45;1.75;;;23.10;59.60;;;;;;5031853;28;20289;-68
2022/07/15 06:44:29;;;;;;;2.28;2.08;;;23.10;59.70;;;;;;5031823;28;20282;-69
2022/07/15 06:46:55;;;;;;;1.60;1.40;;;23.10;59.60;;;;;;5048057;28;20222;-69
2022/07/15 06:49:22;;;;;;;1.85;1.70;;;23.00;59.50;;;;;;5031696;28;20222;-69
2022/07/15 06:51:48;;;;;;;1.60;1.50;;;23.10;59.60;;;;;;5048449;28;20226;-69
2022/07/15 06:54:18;;;;;;;1.95;1.55;;;23.10;59.50;;;;;;5031887;28;20183;-69
2022/07/15 06:56:47;;;;;;;2.10;1.70;;;23.10;59.70;;;;;;5030995;28;20233;-69
2022/07/15 06:59:13;;;;;;;2.10;1.70;;;23.00;59.40;;;;;;5031542;28;20192;-69
2022/07/15 07:01:39;;;;;;;2.25;1.67;;;23.00;59.40;;;;;;5030982;28;20211;-69
2022/07/15 07:04:05;;;;;;;1.90;1.67;;;23.00;60.00;;;;;;5031118;28;20270;-69
2022/07/15 07:06:30;;;;;;;2.05;1.60;;;23.00;59.30;;;;;;5030353;28;20270;-69
2022/07/15 07:08:56;;;;;;;1.77;1.63;;;23.10;59.30;;;;;;5031423;28;20357;-69
2022/07/15 07:11:22;;;;;;;2.97;1.70;;;23.00;59.30;;;;;;5031223;28;20207;-69
2022/07/15 07:13:49;;;;;;;2.00;1.48;;;23.10;59.30;;;;;;5032468;28;20184;-68
2022/07/15 07:16:15;;;;;;;2.47;1.80;;;23.10;59.20;;;;;;5047405;28;20195;-69
2022/07/15 07:18:41;;;;;;;1.80;1.70;;;23.10;59.20;;;;;;5032526;28;20667;-69
2022/07/15 07:21:07;;;;;;;1.77;1.67;;;23.10;59.30;;;;;;5047727;28;20605;-68
2022/07/15 07:23:34;;;;;;;1.63;1.40;;;23.10;59.40;;;;;;5047818;28;20190;-69
2022/07/15 07:26:00;;;;;;;2.15;1.65;;;23.10;59.30;;;;;;5030342;28;20183;-69
2022/07/15 07:28:26;;;;;;;2.10;1.88;;;23.10;59.30;;;;;;5032320;28;20180;-69
2022/07/15 07:30:54;;;;;;;1.60;1.50;;;23.10;59.40;;;;;;5014439;28;20205;-68
2022/07/15 07:33:21;;;;;;;1.60;1.50;;;23.10;59.30;;;;;;5031058;28;20268;-68
2022/07/15 07:35:47;;;;;;;1.90;1.70;;;23.10;59.20;;;;;;5047039;28;20329;-69
2022/07/15 07:38:12;;;;;;;1.88;1.70;;;23.10;59.20;;;;;;5032132;28;20258;-69
2022/07/15 07:40:38;;;;;;;2.28;1.65;;;23.10;59.20;;;;;;5030711;28;20199;-69
2022/07/15 07:43:04;;;;;;;1.70;1.60;;;23.10;59.10;;;;;;5030794;28;20214;-69
2022/07/15 07:45:30;;;;;;;2.10;1.70;;;23.10;59.20;;;;;;5030858;28;20249;-69
2022/07/15 07:47:56;;;;;;;1.95;1.50;;;23.10;59.10;;;;;;5030808;28;20651;-69
2022/07/15 07:50:22;;;;;;;1.63;1.52;;;23.10;59.10;;;;;;5030841;28;20179;-69
2022/07/15 07:52:49;;;;;;;2.05;1.60;;;23.20;59.10;;;;;;5047377;28;20191;-69
2022/07/15 07:55:14;;;;;;;1.50;1.40;;;23.10;58.90;;;;;;5047412;28;20195;-69
2022/07/15 07:57:52;;;;;;;2.63;1.60;;;23.10;59.00;;;;;;5030103;28;20179;-70
2022/07/15 08:00:19;;;;;;;1.58;1.48;;;23.10;59.00;;;;;;5030638;28;20195;-69
2022/07/15 08:02:46;;;;;;;2.00;1.42;;;23.10;59.00;;;;;;5030583;28;20246;-69
2022/07/15 08:05:13;;;;;;;2.17;1.60;;;23.10;59.20;;;;;;5014163;28;20187;-69
2022/07/15 08:07:41;;;;;;;1.90;1.60;;;23.10;59.20;;;;;;5030181;28;20183;-69
2022/07/15 08:10:10;;;;;;;1.55;1.45;;;23.20;59.20;;;;;;5014331;28;20187;-69
2022/07/15 08:12:37;;;;;;;1.90;1.80;;;23.20;59.10;;;;;;5030709;28;20206;-69
2022/07/15 08:15:10;;;;;;;1.60;1.50;;;23.20;59.30;;;;;;5047180;28;20680;-69
2022/07/15 08:17:38;;;;;;;2.60;1.60;;;23.20;59.00;;;;;;5032327;28;20187;-69
2022/07/15 08:20:07;;;;;;;1.90;1.70;;;23.10;58.90;;;;;;5046997;28;20181;-69
2022/07/15 08:22:35;;;;;;;2.03;1.50;;;23.20;59.20;;;;;;5054639;28;20214;-69
2022/07/15 08:25:01;;;;;;;1.58;1.48;;;23.20;59.20;;;;;;5054426;28;20262;-68
2022/07/15 08:27:26;;;;;;;1.23;1.20;;;23.20;59.20;;;;;;5053752;28;20456;-69
2022/07/15 08:29:53;;;;;;;1.73;1.63;;;23.20;59.20;;;;;;5052470;28;20258;-68
2022/07/15 08:32:19;;;;;;;1.83;1.42;;;23.20;59.10;;;;;;5037805;28;20217;-69
2022/07/15 08:34:47;;;;;;;1.60;1.50;;;23.20;59.20;;;;;;5037931;28;20187;-69
2022/07/15 08:37:13;;;;;;;1.60;1.50;;;23.30;59.30;;;;;;5037129;28;20182;-69
2022/07/15 08:39:39;;;;;;;1.73;1.58;;;23.30;59.10;;;;;;5054202;28;20221;-69
2022/07/15 08:42:06;;;;;;;1.77;1.60;;;23.30;59.10;;;;;;5055225;28;20263;-69
2022/07/15 08:44:32;;;;;;;1.52;1.42;;;23.30;59.00;;;;;;5037343;28;20285;-69
2022/07/15 08:47:05;;;;;;;2.15;1.48;;;23.30;59.10;;;;;;5053438;28;20178;-69
2022/07/15 08:49:34;;;;;;;3.03;1.67;;;23.30;59.00;;;;;;5054261;28;20236;-69
2022/07/15 08:52:01;;;;;;;1.55;1.45;;;23.40;58.80;;;;;;5054180;28;20207;-69
2022/07/15 08:54:28;;;;;;;2.75;1.63;;;23.40;59.00;;;;;;5054150;28;20186;-69
2022/07/15 08:56:55;;;;;;;1.98;1.50;;;23.40;58.80;;;;;;5054667;28;20187;-69
2022/07/15 08:59:22;;;;;;;2.10;1.77;;;23.40;58.80;;;;;;5053933;28;20263;-69
2022/07/15 09:01:49;;;;;;;1.50;1.33;;;23.40;58.90;;;;;;5054992;28;20221;-69
2022/07/15 09:04:17;;;;;;;1.73;1.55;;;23.40;58.90;;;;;;5036330;28;20229;-69
2022/07/15 09:06:46;;;;;;;1.98;1.65;;;23.40;58.90;;;;;;5052011;28;20333;-69
2022/07/15 09:09:34;;;;;;;1.50;1.40;;;23.40;59.00;;;;;;5053504;28;20554;-69
2022/07/15 09:12:10;;;;;;;1.80;1.60;;;23.40;59.30;;;;;;5054685;28;20805;-69
2022/07/15 09:14:41;;;;;;;2.75;1.50;;;23.40;59.40;;;;;;5070149;28;20201;-69
2022/07/15 09:17:10;;;;;;;1.95;1.63;;;23.40;59.30;;;;;;5054185;28;20190;-69
2022/07/15 09:20:08;;;;;;;2.00;1.80;;;23.40;59.40;;;;;;5054457;28;20708;-69
2022/07/15 09:22:58;;;;;;;1.63;1.52;;;23.40;59.40;;;;;;5054502;28;20210;-69
2022/07/15 09:25:24;;;;;;;1.70;1.60;;;23.40;59.10;;;;;;5053626;28;20195;-69
2022/07/15 09:27:51;;;;;;;1.70;1.60;;;23.40;59.30;;;;;;5036005;28;20190;-69
2022/07/15 09:33:36;;;;;;;2.10;1.70;;;23.40;59.30;;;;;;5053078;28;20209;-69
2022/07/15 09:36:11;;;;;;;2.05;1.90;;;23.40;59.50;;;;;;5052572;28;20264;-69
2022/07/15 09:38:40;;;;;;;1.80;1.70;;;23.40;59.50;;;;;;5054377;28;20238;-69
2022/07/15 09:41:25;;;;;;;1.80;1.70;;;23.50;59.50;;;;;;5053103;28;20210;-69
2022/07/15 09:44:06;;;;;;;1.75;1.65;;;23.40;59.40;;;;;;5054468;28;20178;-69
2022/07/15 09:47:03;;;;;;;2.50;1.92;;;23.40;59.40;;;;;;5053606;28;20182;-69
2022/07/15 09:49:29;;;;;;;1.90;1.75;;;23.50;59.50;;;;;;5053052;28;20562;-68
2022/07/15 09:52:07;;;;;;;1.80;1.70;;;23.50;59.60;;;;;;5036275;28;20207;-68
2022/07/15 09:54:39;;;;;;;2.35;1.63;;;23.50;59.50;;;;;;5053993;28;20186;-69
2022/07/15 09:57:15;;;;;;;3.28;1.85;;;23.50;59.60;;;;;;5051936;28;20750;-69
2022/07/15 09:59:46;;;;;;;1.88;1.60;;;23.50;60.20;;;;;;5052865;28;20205;-69
2022/07/15 10:02:14;;;;;;;2.63;1.80;;;23.40;59.60;;;;;;5052680;28;20218;-69
2022/07/15 10:04:40;;;;;;;1.67;1.58;;;23.40;59.70;;;;;;5053554;28;20183;-68
2022/07/15 10:07:07;;;;;;;1.42;1.30;;;23.40;59.60;;;;;;5053172;28;20182;-69
2022/07/15 10:09:36;;;;;;;1.52;1.42;;;23.40;59.70;;;;;;5052739;28;20179;-69
2022/07/15 10:12:08;;;;;;;2.00;1.67;;;23.50;59.80;;;;;;5053606;28;20198;-69
2022/07/15 10:14:55;;;;;;;1.52;1.42;;;23.50;59.70;;;;;;5052419;28;20191;-69
2022/07/15 10:17:54;;;;;;;2.00;1.80;;;23.50;59.80;;;;;;5035132;28;20221;-69
2022/07/15 10:21:03;;;;;;;1.70;1.60;;;23.50;59.80;;;;;;5052328;28;20191;-69
2022/07/15 10:23:53;;;;;;;1.67;1.58;;;23.50;59.90;;;;;;5052335;28;20194;-69
2022/07/15 10:26:56;;;;;;;1.70;1.60;;;23.50;59.80;;;;;;5033343;28;20199;-69
2022/07/15 10:29:23;;;;;;;1.70;1.60;;;23.50;59.80;;;;;;5052155;28;20190;-69
2022/07/15 10:32:00;;;;;;;1.77;1.50;;;23.50;59.70;;;;;;5053340;28;20339;-69
2022/07/15 10:34:34;;;;;;;1.75;1.60;;;23.50;59.90;;;;;;5052130;28;20280;-69
2022/07/15 10:37:10;;;;;;;1.60;1.50;;;23.50;59.80;;;;;;5067995;28;20212;-69
2022/07/15 10:40:06;;;;;;;1.85;1.73;;;23.50;60.00;;;;;;5068817;28;20186;-69
2022/07/15 10:43:01;;;;;;;1.70;1.60;;;23.50;59.80;;;;;;5035275;28;20214;-68
2022/07/15 10:45:27;;;;;;;1.80;1.70;;;23.50;60.00;;;;;;5048314;28;20199;-69
2022/07/15 10:48:26;;;;;;;2.08;1.88;;;23.50;60.80;;;;;;5034510;28;20178;-68
2022/07/15 10:50:52;;;;;;;2.60;2.00;;;23.50;60.10;;;;;;5068225;28;20206;-69
2022/07/15 10:53:24;;;;;;;1.90;1.50;;;23.50;60.30;;;;;;5052168;28;20225;-68
2022/07/15 10:55:50;;;;;;;2.80;1.65;;;23.50;60.10;;;;;;5033137;28;20221;-68
2022/07/15 10:58:17;;;;;;;2.33;2.00;;;23.50;60.30;;;;;;5035525;28;20182;-68
2022/07/15 11:00:44;;;;;;;1.60;1.50;;;23.50;60.30;;;;;;5051759;28;20206;-69
2022/07/15 11:03:20;;;;;;;1.92;1.70;;;23.50;60.40;;;;;;5068076;28;20217;-69
2022/07/15 11:05:48;;;;;;;1.73;1.63;;;23.50;60.00;;;;;;5051918;28;20206;-69
2022/07/15 11:08:36;;;;;;;1.80;1.70;;;23.50;60.10;;;;;;5034922;28;20259;-68
2022/07/15 11:11:29;;;;;;;1.70;1.60;;;23.50;59.80;;;;;;5035096;28;20234;-68
2022/07/15 11:13:55;;;;;;;1.92;1.77;;;23.50;60.00;;;;;;5026213;28;20564;-68
2022/07/15 11:16:21;;;;;;;2.15;2.00;;;23.50;60.10;;;;;;5034493;28;20170;-68
2022/07/15 11:18:59;;;;;;;2.85;1.95;;;23.50;60.20;;;;;;5035022;28;20373;-68
2022/07/15 11:21:25;;;;;;;2.05;1.77;;;23.50;60.20;;;;;;5051588;28;20213;-68
2022/07/15 11:23:53;;;;;;;2.30;2.10;;;23.50;59.90;;;;;;5051619;28;20705;-68
2022/07/15 11:26:20;;;;;;;1.73;1.60;;;23.50;60.00;;;;;;5050672;28;20190;-70
2022/07/15 11:28:58;;;;;;;2.55;2.13;;;23.50;60.10;;;;;;5034572;28;20232;-69
2022/07/15 11:31:24;;;;;;;2.05;1.92;;;23.50;59.90;;;;;;5050939;28;20219;-69
2022/07/15 11:33:55;;;;;;;2.17;2.00;;;23.50;60.00;;;;;;5050991;28;20198;-69
2022/07/15 11:36:22;;;;;;;2.10;2.00;;;23.50;60.10;;;;;;5051623;28;20182;-69
2022/07/15 11:38:48;;;;;;;2.00;1.83;;;23.50;60.50;;;;;;5034338;28;20194;-68
2022/07/15 11:46:52;;;;;;;1.55;1.45;;;23.50;60.00;;;;;;5051248;28;20190;-69
2022/07/15 11:49:33;;;;;;;2.22;1.92;;;23.50;60.30;;;;;;5050540;28;20193;-69
2022/07/15 11:52:01;;;;;;;1.80;1.70;;;23.50;60.20;;;;;;5033810;28;20682;-68
2022/07/15 11:54:28;;;;;;;1.90;1.80;;;23.50;60.30;;;;;;5051893;28;20182;-68
2022/07/15 11:57:00;;;;;;;1.90;1.70;;;23.50;60.30;;;;;;5033356;28;20182;-68
2022/07/15 11:59:26;;;;;;;1.80;1.67;;;23.60;60.00;;;;;;5050540;28;20206;-69
2022/07/15 12:02:14;;;;;;;2.08;1.83;;;23.50;60.30;;;;;;5067193;28;20272;-69
2022/07/15 12:04:42;;;;;;;1.83;1.73;;;23.50;60.20;;;;;;5051247;28;20206;-69
2022/07/15 12:07:08;;;;;;;1.88;1.77;;;23.60;60.00;;;;;;5033332;28;20240;-68
2022/07/15 12:09:50;;;;;;;2.20;2.03;;;23.50;60.00;;;;;;5050720;28;20178;-68
2022/07/15 12:12:17;;;;;;;2.38;2.17;;;23.60;60.20;;;;;;5050730;28;20245;-68
2022/07/15 12:14:48;;;;;;;2.15;2.00;;;23.50;60.20;;;;;;5051050;28;20253;-68
2022/07/15 12:17:15;;;;;;;2.63;1.80;;;23.60;60.00;;;;;;5033793;28;20190;-68
2022/07/15 12:19:49;;;;;;;2.85;2.00;;;23.50;60.10;;;;;;5050740;28;20236;-68
2022/07/15 12:22:15;;;;;;;2.25;2.08;;;23.50;60.40;;;;;;5051844;28;20221;-68
2022/07/15 12:24:51;;;;;;;1.80;1.70;;;23.50;60.30;;;;;;5051727;28;20163;-69
2022/07/15 12:27:17;;;;;;;1.80;1.70;;;23.60;60.30;;;;;;5031158;28;20225;-68
2022/07/15 12:29:43;;;;;;;2.60;1.98;;;23.50;60.10;;;;;;5031703;28;20186;-68
2022/07/15 12:32:13;;;;;;;2.75;2.00;;;23.50;60.10;;;;;;5031485;28;20234;-69
2022/07/15 12:34:55;;;;;;;2.10;2.00;;;23.50;60.30;;;;;;5014209;28;20191;-69
2022/07/15 12:37:24;;;;;;;2.33;1.70;;;23.60;60.30;;;;;;5046409;28;20202;-68
2022/07/15 12:40:03;;;;;;;2.00;1.88;;;23.60;60.10;;;;;;5032093;28;20183;-69
2022/07/15 12:42:44;;;;;;;2.83;1.90;;;23.50;60.30;;;;;;5014506;28;20229;-69
2022/07/15 12:45:14;;;;;;;1.80;1.70;;;23.50;60.60;;;;;;5042294;28;20182;-68
2022/07/15 12:48:03;;;;;;;2.38;2.17;;;23.50;60.50;;;;;;5043932;28;20544;-68
2022/07/15 12:50:32;;;;;;;1.95;1.85;;;23.50;60.40;;;;;;5047822;28;20218;-69
2022/07/15 12:52:58;;;;;;;1.77;1.55;;;23.60;61.10;;;;;;5047311;28;20183;-69
2022/07/15 12:55:40;;;;;;;1.90;1.70;;;23.60;60.90;;;;;;5048995;28;20193;-68
2022/07/15 12:58:12;;;;;;;2.75;1.90;;;23.60;60.80;;;;;;5048834;28;20181;-69
2022/07/15 13:00:40;;;;;;;2.17;2.00;;;23.60;60.30;;;;;;5049860;28;20210;-68
2022/07/15 13:03:09;;;;;;;2.60;1.98;;;23.60;60.20;;;;;;5050012;28;20202;-68
2022/07/15 13:05:39;;;;;;;2.20;2.03;;;23.60;60.00;;;;;;5052865;28;20185;-69
2022/07/15 13:08:12;;;;;;;2.67;2.08;;;23.60;60.10;;;;;;5054518;28;20178;-69
2022/07/15 13:10:41;;;;;;;2.35;2.00;;;23.60;60.00;;;;;;5054706;28;20229;-68
2022/07/15 13:13:09;;;;;;;2.58;2.20;;;23.60;60.30;;;;;;5037055;28;20650;-68
2022/07/15 13:15:36;;;;;;;2.10;1.98;;;23.60;60.10;;;;;;5053525;28;20190;-69